sensor_id;sensor_type;location;lat;lon;timestamp;P1;durP1;ratioP1;P2;durP2;ratioP2
12048;SDS011;6085;49.452;8.502;2023-07-22T00:00:43;1.00;;;1.00;;
12048;SDS011;6085;49.452;8.502;2023-07-22T00:04:45;1.00;;;1.00;;
12048;SDS011;6085;49.452;8.502;2023-07-22T00:08:49;1.10;;;1.10;;
12048;SDS011;6085;49.452;8.502;2023-07-22T00:12:51;1.20;;;1.20;;
12048;SDS011;6085;49.452;8.502;2023-07-22T00:16:53;1.42;;;1.33;;
12048;SDS011;6085;49.452;8.502;2023-07-22T00:20:55;0.93;;;0.93;;
12048;SDS011;6085;49.452;8.502;2023-07-22T00:24:58;1.23;;;1.23;;
12048;SDS011;6085;49.452;8.502;2023-07-22T00:29:01;1.52;;;1.42;;
12048;SDS011;6085;49.452;8.502;2023-07-22T00:33:03;1.55;;;1.45;;
12048;SDS011;6085;49.452;8.502;2023-07-22T00:37:05;1.63;;;1.40;;
12048;SDS011;6085;49.452;8.502;2023-07-22T00:41:09;1.60;;;1.30;;
12048;SDS011;6085;49.452;8.502;2023-07-22T00:45:11;1.45;;;1.35;;
12048;SDS011;6085;49.452;8.502;2023-07-22T00:49:14;1.23;;;1.17;;
12048;SDS011;6085;49.452;8.502;2023-07-22T00:53:17;1.10;;;1.10;;
12048;SDS011;6085;49.452;8.502;2023-07-22T00:57:21;1.33;;;1.23;;
12048;SDS011;6085;49.452;8.502;2023-07-22T01:01:23;1.00;;;1.00;;
12048;SDS011;6085;49.452;8.502;2023-07-22T01:05:25;1.30;;;1.30;;
12048;SDS011;6085;49.452;8.502;2023-07-22T01:09:33;1.40;;;1.30;;
12048;SDS011;6085;49.452;8.502;2023-07-22T01:13:37;1.33;;;1.25;;
12048;SDS011;6085;49.452;8.502;2023-07-22T01:17:39;1.25;;;1.20;;
12048;SDS011;6085;49.452;8.502;2023-07-22T01:21:41;1.60;;;1.50;;
12048;SDS011;6085;49.452;8.502;2023-07-22T01:25:45;1.30;;;1.20;;
12048;SDS011;6085;49.452;8.502;2023-07-22T01:29:49;1.30;;;1.20;;
12048;SDS011;6085;49.452;8.502;2023-07-22T01:33:52;1.60;;;1.42;;
12048;SDS011;6085;49.452;8.502;2023-07-22T01:37:53;1.52;;;1.42;;
12048;SDS011;6085;49.452;8.502;2023-07-22T01:41:57;1.50;;;1.40;;
12048;SDS011;6085;49.452;8.502;2023-07-22T01:45:59;1.85;;;1.75;;
12048;SDS011;6085;49.452;8.502;2023-07-22T01:50:01;1.70;;;1.60;;
12048;SDS011;6085;49.452;8.502;2023-07-22T01:54:04;1.70;;;1.60;;
12048;SDS011;6085;49.452;8.502;2023-07-22T01:58:08;2.13;;;1.95;;
12048;SDS011;6085;49.452;8.502;2023-07-22T02:02:09;1.33;;;1.33;;
12048;SDS011;6085;49.452;8.502;2023-07-22T02:06:11;1.90;;;1.80;;
12048;SDS011;6085;49.452;8.502;2023-07-22T02:10:13;2.00;;;1.90;;
12048;SDS011;6085;49.452;8.502;2023-07-22T02:14:17;1.35;;;1.25;;
12048;SDS011;6085;49.452;8.502;2023-07-22T02:18:19;1.52;;;1.42;;
12048;SDS011;6085;49.452;8.502;2023-07-22T02:22:20;2.08;;;1.95;;
12048;SDS011;6085;49.452;8.502;2023-07-22T02:26:22;3.28;;;1.75;;
12048;SDS011;6085;49.452;8.502;2023-07-22T02:30:26;2.00;;;1.90;;
12048;SDS011;6085;49.452;8.502;2023-07-22T02:34:28;2.67;;;1.83;;
12048;SDS011;6085;49.452;8.502;2023-07-22T02:38:29;1.83;;;1.73;;
12048;SDS011;6085;49.452;8.502;2023-07-22T02:42:31;3.83;;;2.22;;
12048;SDS011;6085;49.452;8.502;2023-07-22T02:46:35;2.17;;;1.98;;
12048;SDS011;6085;49.452;8.502;2023-07-22T02:50:36;2.85;;;2.65;;
12048;SDS011;6085;49.452;8.502;2023-07-22T02:54:39;2.55;;;2.35;;
12048;SDS011;6085;49.452;8.502;2023-07-22T02:58:41;3.60;;;2.67;;
12048;SDS011;6085;49.452;8.502;2023-07-22T03:02:45;3.80;;;3.40;;
12048;SDS011;6085;49.452;8.502;2023-07-22T03:06:47;3.85;;;3.17;;
12048;SDS011;6085;49.452;8.502;2023-07-22T03:10:49;3.05;;;2.75;;
12048;SDS011;6085;49.452;8.502;2023-07-22T03:14:51;2.95;;;2.75;;
12048;SDS011;6085;49.452;8.502;2023-07-22T03:18:54;3.83;;;3.45;;
12048;SDS011;6085;49.452;8.502;2023-07-22T03:22:56;3.28;;;3.03;;
12048;SDS011;6085;49.452;8.502;2023-07-22T03:26:58;4.90;;;3.92;;
12048;SDS011;6085;49.452;8.502;2023-07-22T03:31:00;4.65;;;4.15;;
12048;SDS011;6085;49.452;8.502;2023-07-22T03:35:03;3.85;;;3.42;;
12048;SDS011;6085;49.452;8.502;2023-07-22T03:39:08;6.25;;;4.80;;
12048;SDS011;6085;49.452;8.502;2023-07-22T03:43:10;4.68;;;4.28;;
12048;SDS011;6085;49.452;8.502;2023-07-22T03:47:12;6.97;;;4.43;;
12048;SDS011;6085;49.452;8.502;2023-07-22T03:51:15;4.93;;;4.47;;
12048;SDS011;6085;49.452;8.502;2023-07-22T03:55:18;5.32;;;4.82;;
12048;SDS011;6085;49.452;8.502;2023-07-22T03:59:20;4.97;;;4.40;;
12048;SDS011;6085;49.452;8.502;2023-07-22T04:03:22;5.10;;;3.85;;
12048;SDS011;6085;49.452;8.502;2023-07-22T04:07:25;6.68;;;4.80;;
12048;SDS011;6085;49.452;8.502;2023-07-22T04:11:27;4.72;;;4.22;;
12048;SDS011;6085;49.452;8.502;2023-07-22T04:15:29;4.30;;;3.90;;
12048;SDS011;6085;49.452;8.502;2023-07-22T04:19:31;6.05;;;5.05;;
12048;SDS011;6085;49.452;8.502;2023-07-22T04:23:35;4.75;;;3.95;;
12048;SDS011;6085;49.452;8.502;2023-07-22T04:27:37;5.07;;;4.47;;
12048;SDS011;6085;49.452;8.502;2023-07-22T04:31:39;6.47;;;4.72;;
12048;SDS011;6085;49.452;8.502;2023-07-22T04:35:42;5.85;;;4.72;;
12048;SDS011;6085;49.452;8.502;2023-07-22T04:39:47;6.95;;;4.72;;
12048;SDS011;6085;49.452;8.502;2023-07-22T04:43:50;6.80;;;5.18;;
12048;SDS011;6085;49.452;8.502;2023-07-22T04:47:53;5.13;;;4.60;;
12048;SDS011;6085;49.452;8.502;2023-07-22T04:51:54;7.13;;;4.93;;
12048;SDS011;6085;49.452;8.502;2023-07-22T04:55:59;5.97;;;4.75;;
12048;SDS011;6085;49.452;8.502;2023-07-22T05:00:02;4.38;;;3.97;;
12048;SDS011;6085;49.452;8.502;2023-07-22T05:04:04;3.30;;;3.00;;
12048;SDS011;6085;49.452;8.502;2023-07-22T05:08:06;3.22;;;2.90;;
12048;SDS011;6085;49.452;8.502;2023-07-22T05:12:10;3.22;;;2.92;;
12048;SDS011;6085;49.452;8.502;2023-07-22T05:16:12;2.88;;;2.58;;
12048;SDS011;6085;49.452;8.502;2023-07-22T05:20:14;2.42;;;2.22;;
12048;SDS011;6085;49.452;8.502;2023-07-22T05:24:17;2.97;;;2.47;;
12048;SDS011;6085;49.452;8.502;2023-07-22T05:28:22;2.50;;;2.30;;
12048;SDS011;6085;49.452;8.502;2023-07-22T05:32:24;2.95;;;2.40;;
12048;SDS011;6085;49.452;8.502;2023-07-22T05:36:26;2.67;;;2.47;;
12048;SDS011;6085;49.452;8.502;2023-07-22T05:40:28;2.92;;;2.22;;
12048;SDS011;6085;49.452;8.502;2023-07-22T05:44:31;3.05;;;2.60;;
12048;SDS011;6085;49.452;8.502;2023-07-22T05:48:33;2.38;;;1.85;;
12048;SDS011;6085;49.452;8.502;2023-07-22T05:52:35;1.80;;;1.70;;
12048;SDS011;6085;49.452;8.502;2023-07-22T05:56:37;2.60;;;2.13;;
12048;SDS011;6085;49.452;8.502;2023-07-22T06:00:41;2.28;;;1.83;;
12048;SDS011;6085;49.452;8.502;2023-07-22T06:04:43;2.22;;;2.03;;
12048;SDS011;6085;49.452;8.502;2023-07-22T06:08:45;2.20;;;2.00;;
12048;SDS011;6085;49.452;8.502;2023-07-22T06:12:46;2.40;;;2.20;;
12048;SDS011;6085;49.452;8.502;2023-07-22T06:16:50;1.63;;;1.52;;
12048;SDS011;6085;49.452;8.502;2023-07-22T06:20:52;2.00;;;1.88;;
12048;SDS011;6085;49.452;8.502;2023-07-22T06:24:54;2.70;;;2.28;;
12048;SDS011;6085;49.452;8.502;2023-07-22T06:28:56;1.80;;;1.70;;
12048;SDS011;6085;49.452;8.502;2023-07-22T06:32:59;2.28;;;2.08;;
12048;SDS011;6085;49.452;8.502;2023-07-22T06:37:01;2.45;;;2.25;;
12048;SDS011;6085;49.452;8.502;2023-07-22T06:41:03;2.20;;;2.00;;
12048;SDS011;6085;49.452;8.502;2023-07-22T06:45:05;2.15;;;1.75;;
12048;SDS011;6085;49.452;8.502;2023-07-22T06:49:09;2.30;;;2.10;;
12048;SDS011;6085;49.452;8.502;2023-07-22T06:53:11;1.98;;;1.85;;
12048;SDS011;6085;49.452;8.502;2023-07-22T06:57:14;2.42;;;2.00;;
12048;SDS011;6085;49.452;8.502;2023-07-22T07:01:17;1.80;;;1.70;;
12048;SDS011;6085;49.452;8.502;2023-07-22T07:05:20;2.25;;;2.05;;
12048;SDS011;6085;49.452;8.502;2023-07-22T07:09:22;2.47;;;2.25;;
12048;SDS011;6085;49.452;8.502;2023-07-22T07:13:24;2.00;;;1.90;;
12048;SDS011;6085;49.452;8.502;2023-07-22T07:17:25;2.10;;;2.00;;
12048;SDS011;6085;49.452;8.502;2023-07-22T07:21:29;2.63;;;2.03;;
12048;SDS011;6085;49.452;8.502;2023-07-22T07:25:31;1.40;;;1.38;;
12048;SDS011;6085;49.452;8.502;2023-07-22T07:29:33;2.17;;;1.98;;
12048;SDS011;6085;49.452;8.502;2023-07-22T07:33:35;1.80;;;1.70;;
12048;SDS011;6085;49.452;8.502;2023-07-22T07:37:38;2.40;;;1.70;;
12048;SDS011;6085;49.452;8.502;2023-07-22T07:41:40;2.33;;;2.10;;
12048;SDS011;6085;49.452;8.502;2023-07-22T07:45:42;2.60;;;2.40;;
12048;SDS011;6085;49.452;8.502;2023-07-22T07:49:44;2.22;;;2.00;;
12048;SDS011;6085;49.452;8.502;2023-07-22T07:53:48;2.90;;;2.20;;
12048;SDS011;6085;49.452;8.502;2023-07-22T07:57:50;1.88;;;1.73;;
12048;SDS011;6085;49.452;8.502;2023-07-22T08:01:52;2.20;;;2.05;;
12048;SDS011;6085;49.452;8.502;2023-07-22T08:05:54;1.85;;;1.73;;
12048;SDS011;6085;49.452;8.502;2023-07-22T08:09:58;1.73;;;1.63;;
12048;SDS011;6085;49.452;8.502;2023-07-22T08:14:00;2.08;;;1.70;;
12048;SDS011;6085;49.452;8.502;2023-07-22T08:18:02;1.60;;;1.50;;
12048;SDS011;6085;49.452;8.502;2023-07-22T08:22:04;1.70;;;1.60;;
12048;SDS011;6085;49.452;8.502;2023-07-22T08:26:08;1.70;;;1.60;;
12048;SDS011;6085;49.452;8.502;2023-07-22T08:30:10;2.90;;;1.50;;
12048;SDS011;6085;49.452;8.502;2023-07-22T08:34:12;1.92;;;1.73;;
12048;SDS011;6085;49.452;8.502;2023-07-22T08:38:14;1.52;;;1.42;;
12048;SDS011;6085;49.452;8.502;2023-07-22T08:42:18;2.10;;;1.40;;
12048;SDS011;6085;49.452;8.502;2023-07-22T08:46:20;1.25;;;1.23;;
12048;SDS011;6085;49.452;8.502;2023-07-22T08:50:26;1.60;;;1.50;;
12048;SDS011;6085;49.452;8.502;2023-07-22T08:54:31;1.80;;;1.55;;
12048;SDS011;6085;49.452;8.502;2023-07-22T08:58:36;1.50;;;1.40;;
12048;SDS011;6085;49.452;8.502;2023-07-22T09:02:38;1.23;;;1.13;;
12048;SDS011;6085;49.452;8.502;2023-07-22T09:06:42;1.85;;;1.30;;
12048;SDS011;6085;49.452;8.502;2023-07-22T09:10:45;1.60;;;1.30;;
12048;SDS011;6085;49.452;8.502;2023-07-22T09:14:49;1.50;;;1.40;;
12048;SDS011;6085;49.452;8.502;2023-07-22T09:18:54;1.33;;;1.23;;
12048;SDS011;6085;49.452;8.502;2023-07-22T09:22:56;1.45;;;1.35;;
12048;SDS011;6085;49.452;8.502;2023-07-22T09:27:00;1.40;;;1.20;;
12048;SDS011;6085;49.452;8.502;2023-07-22T09:31:03;3.10;;;1.45;;
12048;SDS011;6085;49.452;8.502;2023-07-22T09:35:06;1.50;;;1.40;;
12048;SDS011;6085;49.452;8.502;2023-07-22T09:39:09;2.40;;;1.40;;
12048;SDS011;6085;49.452;8.502;2023-07-22T09:43:15;2.60;;;1.50;;
12048;SDS011;6085;49.452;8.502;2023-07-22T09:47:19;1.40;;;1.20;;
12048;SDS011;6085;49.452;8.502;2023-07-22T09:51:21;1.60;;;1.50;;
12048;SDS011;6085;49.452;8.502;2023-07-22T09:55:24;1.35;;;1.25;;
12048;SDS011;6085;49.452;8.502;2023-07-22T09:59:28;1.60;;;1.30;;
12048;SDS011;6085;49.452;8.502;2023-07-22T10:03:33;1.50;;;1.38;;
12048;SDS011;6085;49.452;8.502;2023-07-22T10:07:40;1.60;;;1.50;;
12048;SDS011;6085;49.452;8.502;2023-07-22T10:11:47;1.73;;;1.40;;
12048;SDS011;6085;49.452;8.502;2023-07-22T10:15:49;1.40;;;1.30;;
12048;SDS011;6085;49.452;8.502;2023-07-22T10:19:53;1.40;;;1.30;;
12048;SDS011;6085;49.452;8.502;2023-07-22T10:23:55;1.55;;;1.33;;
12048;SDS011;6085;49.452;8.502;2023-07-22T10:27:58;1.50;;;1.40;;
12048;SDS011;6085;49.452;8.502;2023-07-22T10:32:00;1.60;;;1.30;;
12048;SDS011;6085;49.452;8.502;2023-07-22T10:36:04;1.20;;;1.20;;
12048;SDS011;6085;49.452;8.502;2023-07-22T10:40:17;1.85;;;1.70;;
12048;SDS011;6085;49.452;8.502;2023-07-22T10:44:25;1.60;;;1.50;;
12048;SDS011;6085;49.452;8.502;2023-07-22T10:48:28;2.80;;;2.30;;
12048;SDS011;6085;49.452;8.502;2023-07-22T10:52:41;1.20;;;1.20;;
12048;SDS011;6085;49.452;8.502;2023-07-22T10:56:44;1.73;;;1.30;;
12048;SDS011;6085;49.452;8.502;2023-07-22T11:00:47;1.65;;;1.55;;
12048;SDS011;6085;49.452;8.502;2023-07-22T11:04:49;1.42;;;1.33;;
12048;SDS011;6085;49.452;8.502;2023-07-22T11:08:52;1.38;;;1.27;;
12048;SDS011;6085;49.452;8.502;2023-07-22T11:12:54;1.50;;;1.40;;
12048;SDS011;6085;49.452;8.502;2023-07-22T11:16:56;1.70;;;1.60;;
12048;SDS011;6085;49.452;8.502;2023-07-22T11:21:00;1.27;;;1.20;;
12048;SDS011;6085;49.452;8.502;2023-07-22T11:25:04;1.50;;;1.40;;
12048;SDS011;6085;49.452;8.502;2023-07-22T11:29:07;1.23;;;1.10;;
12048;SDS011;6085;49.452;8.502;2023-07-22T11:33:10;1.73;;;1.60;;
12048;SDS011;6085;49.452;8.502;2023-07-22T11:37:12;1.60;;;1.50;;
12048;SDS011;6085;49.452;8.502;2023-07-22T11:41:16;1.40;;;1.30;;
12048;SDS011;6085;49.452;8.502;2023-07-22T11:45:18;1.52;;;1.42;;
12048;SDS011;6085;49.452;8.502;2023-07-22T11:49:24;1.63;;;1.52;;
12048;SDS011;6085;49.452;8.502;2023-07-22T11:53:27;2.50;;;1.23;;
12048;SDS011;6085;49.452;8.502;2023-07-22T11:57:30;1.38;;;1.25;;
12048;SDS011;6085;49.452;8.502;2023-07-22T12:01:32;1.33;;;1.23;;
12048;SDS011;6085;49.452;8.502;2023-07-22T12:05:35;1.70;;;1.60;;
12048;SDS011;6085;49.452;8.502;2023-07-22T12:09:38;1.35;;;1.25;;
12048;SDS011;6085;49.452;8.502;2023-07-22T12:13:41;1.52;;;1.42;;
12048;SDS011;6085;49.452;8.502;2023-07-22T12:17:46;1.30;;;1.20;;
12048;SDS011;6085;49.452;8.502;2023-07-22T12:21:49;1.48;;;1.38;;
12048;SDS011;6085;49.452;8.502;2023-07-22T12:25:51;2.20;;;1.33;;
12048;SDS011;6085;49.452;8.502;2023-07-22T12:29:55;1.42;;;1.33;;
12048;SDS011;6085;49.452;8.502;2023-07-22T12:34:01;1.25;;;1.15;;
12048;SDS011;6085;49.452;8.502;2023-07-22T12:38:02;2.45;;;1.60;;
12048;SDS011;6085;49.452;8.502;2023-07-22T12:42:05;2.25;;;1.50;;
12048;SDS011;6085;49.452;8.502;2023-07-22T12:46:08;1.73;;;1.60;;
12048;SDS011;6085;49.452;8.502;2023-07-22T12:50:11;1.38;;;1.25;;
12048;SDS011;6085;49.452;8.502;2023-07-22T12:54:13;1.30;;;1.13;;
12048;SDS011;6085;49.452;8.502;2023-07-22T12:58:15;1.35;;;1.25;;
12048;SDS011;6085;49.452;8.502;2023-07-22T13:02:18;1.60;;;1.50;;
12048;SDS011;6085;49.452;8.502;2023-07-22T13:06:20;1.50;;;1.40;;
12048;SDS011;6085;49.452;8.502;2023-07-22T13:10:22;1.70;;;1.60;;
12048;SDS011;6085;49.452;8.502;2023-07-22T13:14:25;1.98;;;1.60;;
12048;SDS011;6085;49.452;8.502;2023-07-22T13:18:29;1.70;;;1.52;;
12048;SDS011;6085;49.452;8.502;2023-07-22T13:22:31;1.63;;;1.50;;
12048;SDS011;6085;49.452;8.502;2023-07-22T13:26:33;2.22;;;1.60;;
12048;SDS011;6085;49.452;8.502;2023-07-22T13:30:36;1.73;;;1.50;;
12048;SDS011;6085;49.452;8.502;2023-07-22T13:34:39;2.28;;;1.42;;
12048;SDS011;6085;49.452;8.502;2023-07-22T13:38:41;1.85;;;1.58;;
12048;SDS011;6085;49.452;8.502;2023-07-22T13:42:43;1.40;;;1.30;;
12048;SDS011;6085;49.452;8.502;2023-07-22T13:46:45;1.52;;;1.42;;
12048;SDS011;6085;49.452;8.502;2023-07-22T13:50:49;1.35;;;1.25;;
12048;SDS011;6085;49.452;8.502;2023-07-22T13:54:51;1.42;;;1.33;;
12048;SDS011;6085;49.452;8.502;2023-07-22T13:58:53;1.60;;;1.50;;
12048;SDS011;6085;49.452;8.502;2023-07-22T14:02:55;2.50;;;1.48;;
12048;SDS011;6085;49.452;8.502;2023-07-22T14:06:58;1.25;;;1.15;;
12048;SDS011;6085;49.452;8.502;2023-07-22T14:11:00;1.85;;;1.50;;
12048;SDS011;6085;49.452;8.502;2023-07-22T14:15:03;2.47;;;1.77;;
12048;SDS011;6085;49.452;8.502;2023-07-22T14:19:06;1.70;;;1.60;;
12048;SDS011;6085;49.452;8.502;2023-07-22T14:23:10;1.50;;;1.38;;
12048;SDS011;6085;49.452;8.502;2023-07-22T14:27:12;2.17;;;1.80;;
12048;SDS011;6085;49.452;8.502;2023-07-22T14:31:14;1.52;;;1.42;;
12048;SDS011;6085;49.452;8.502;2023-07-22T14:35:16;1.77;;;1.50;;
12048;SDS011;6085;49.452;8.502;2023-07-22T14:39:19;3.03;;;1.50;;
12048;SDS011;6085;49.452;8.502;2023-07-22T14:43:21;1.55;;;1.45;;
12048;SDS011;6085;49.452;8.502;2023-07-22T14:47:23;1.77;;;1.67;;
12048;SDS011;6085;49.452;8.502;2023-07-22T14:51:26;1.70;;;1.60;;
12048;SDS011;6085;49.452;8.502;2023-07-22T14:55:29;1.45;;;1.35;;
12048;SDS011;6085;49.452;8.502;2023-07-22T14:59:31;1.95;;;1.75;;
12048;SDS011;6085;49.452;8.502;2023-07-22T15:03:33;1.60;;;1.50;;
12048;SDS011;6085;49.452;8.502;2023-07-22T15:07:35;1.85;;;1.67;;
12048;SDS011;6085;49.452;8.502;2023-07-22T15:11:39;1.83;;;1.63;;
12048;SDS011;6085;49.452;8.502;2023-07-22T15:15:41;3.38;;;2.35;;
12048;SDS011;6085;49.452;8.502;2023-07-22T15:19:43;1.33;;;1.27;;
12048;SDS011;6085;49.452;8.502;2023-07-22T15:23:45;1.98;;;1.50;;
12048;SDS011;6085;49.452;8.502;2023-07-22T15:27:48;1.50;;;1.40;;
12048;SDS011;6085;49.452;8.502;2023-07-22T15:31:50;1.60;;;1.50;;
12048;SDS011;6085;49.452;8.502;2023-07-22T15:35:53;1.50;;;1.40;;
12048;SDS011;6085;49.452;8.502;2023-07-22T15:39:55;1.77;;;1.63;;
12048;SDS011;6085;49.452;8.502;2023-07-22T15:43:58;2.47;;;2.05;;
12048;SDS011;6085;49.452;8.502;2023-07-22T15:48:00;1.73;;;1.63;;
12048;SDS011;6085;49.452;8.502;2023-07-22T15:52:03;1.60;;;1.50;;
12048;SDS011;6085;49.452;8.502;2023-07-22T15:56:05;1.45;;;1.27;;
12048;SDS011;6085;49.452;8.502;2023-07-22T16:00:10;2.08;;;1.90;;
12048;SDS011;6085;49.452;8.502;2023-07-22T16:04:13;1.60;;;1.50;;
12048;SDS011;6085;49.452;8.502;2023-07-22T16:08:15;4.22;;;3.38;;
12048;SDS011;6085;49.452;8.502;2023-07-22T16:12:16;2.25;;;1.80;;
12048;SDS011;6085;49.452;8.502;2023-07-22T16:16:20;1.80;;;1.50;;
12048;SDS011;6085;49.452;8.502;2023-07-22T16:20:22;1.92;;;1.60;;
12048;SDS011;6085;49.452;8.502;2023-07-22T16:24:24;2.33;;;1.98;;
12048;SDS011;6085;49.452;8.502;2023-07-22T16:28:29;2.05;;;1.70;;
12048;SDS011;6085;49.452;8.502;2023-07-22T16:32:33;1.73;;;1.60;;
12048;SDS011;6085;49.452;8.502;2023-07-22T16:36:34;3.00;;;1.73;;
12048;SDS011;6085;49.452;8.502;2023-07-22T16:40:37;1.85;;;1.40;;
12048;SDS011;6085;49.452;8.502;2023-07-22T16:44:38;2.17;;;1.60;;
12048;SDS011;6085;49.452;8.502;2023-07-22T16:48:42;1.75;;;1.60;;
12048;SDS011;6085;49.452;8.502;2023-07-22T16:52:44;1.52;;;1.42;;
12048;SDS011;6085;49.452;8.502;2023-07-22T16:56:45;2.40;;;1.58;;
12048;SDS011;6085;49.452;8.502;2023-07-22T17:00:47;1.77;;;1.67;;
12048;SDS011;6085;49.452;8.502;2023-07-22T17:04:51;1.95;;;1.85;;
12048;SDS011;6085;49.452;8.502;2023-07-22T17:08:53;1.70;;;1.60;;
12048;SDS011;6085;49.452;8.502;2023-07-22T17:12:55;1.67;;;1.58;;
12048;SDS011;6085;49.452;8.502;2023-07-22T17:16:57;1.70;;;1.60;;
12048;SDS011;6085;49.452;8.502;2023-07-22T17:21:00;2.20;;;2.00;;
12048;SDS011;6085;49.452;8.502;2023-07-22T17:25:03;1.85;;;1.60;;
12048;SDS011;6085;49.452;8.502;2023-07-22T17:29:05;2.42;;;2.10;;
12048;SDS011;6085;49.452;8.502;2023-07-22T17:33:07;4.07;;;1.92;;
12048;SDS011;6085;49.452;8.502;2023-07-22T17:37:10;2.05;;;1.73;;
12048;SDS011;6085;49.452;8.502;2023-07-22T17:41:12;1.38;;;1.27;;
12048;SDS011;6085;49.452;8.502;2023-07-22T17:45:14;2.25;;;2.00;;
12048;SDS011;6085;49.452;8.502;2023-07-22T17:49:16;2.17;;;1.80;;
12048;SDS011;6085;49.452;8.502;2023-07-22T17:53:20;3.33;;;1.50;;
12048;SDS011;6085;49.452;8.502;2023-07-22T17:57:22;1.70;;;1.60;;
12048;SDS011;6085;49.452;8.502;2023-07-22T18:01:24;1.92;;;1.70;;
12048;SDS011;6085;49.452;8.502;2023-07-22T18:05:26;1.45;;;1.30;;
12048;SDS011;6085;49.452;8.502;2023-07-22T18:09:30;1.88;;;1.77;;
12048;SDS011;6085;49.452;8.502;2023-07-22T18:13:32;3.15;;;1.90;;
12048;SDS011;6085;49.452;8.502;2023-07-22T18:17:34;2.08;;;1.88;;
12048;SDS011;6085;49.452;8.502;2023-07-22T18:21:36;2.88;;;1.65;;
12048;SDS011;6085;49.452;8.502;2023-07-22T18:25:40;1.77;;;1.40;;
12048;SDS011;6085;49.452;8.502;2023-07-22T18:29:42;1.90;;;1.80;;
12048;SDS011;6085;49.452;8.502;2023-07-22T18:33:44;1.80;;;1.65;;
12048;SDS011;6085;49.452;8.502;2023-07-22T18:37:46;1.92;;;1.77;;
12048;SDS011;6085;49.452;8.502;2023-07-22T18:41:49;1.88;;;1.65;;
12048;SDS011;6085;49.452;8.502;2023-07-22T18:45:51;1.70;;;1.60;;
12048;SDS011;6085;49.452;8.502;2023-07-22T18:49:54;2.40;;;1.88;;
12048;SDS011;6085;49.452;8.502;2023-07-22T18:53:59;3.53;;;1.73;;
12048;SDS011;6085;49.452;8.502;2023-07-22T18:58:03;2.65;;;1.80;;
12048;SDS011;6085;49.452;8.502;2023-07-22T19:02:05;2.53;;;1.90;;
12048;SDS011;6085;49.452;8.502;2023-07-22T19:06:07;1.80;;;1.70;;
12048;SDS011;6085;49.452;8.502;2023-07-22T19:10:10;1.98;;;1.80;;
12048;SDS011;6085;49.452;8.502;2023-07-22T19:14:13;2.22;;;1.67;;
12048;SDS011;6085;49.452;8.502;2023-07-22T19:18:15;2.13;;;1.70;;
12048;SDS011;6085;49.452;8.502;2023-07-22T19:22:17;1.67;;;1.58;;
12048;SDS011;6085;49.452;8.502;2023-07-22T19:26:19;2.35;;;1.80;;
12048;SDS011;6085;49.452;8.502;2023-07-22T19:30:22;2.17;;;1.80;;
12048;SDS011;6085;49.452;8.502;2023-07-22T19:34:24;1.42;;;1.30;;
12048;SDS011;6085;49.452;8.502;2023-07-22T19:38:26;1.73;;;1.63;;
12048;SDS011;6085;49.452;8.502;2023-07-22T19:42:28;2.08;;;1.80;;
12048;SDS011;6085;49.452;8.502;2023-07-22T19:46:31;1.83;;;1.63;;
12048;SDS011;6085;49.452;8.502;2023-07-22T19:50:33;1.90;;;1.80;;
12048;SDS011;6085;49.452;8.502;2023-07-22T19:54:36;1.92;;;1.73;;
12048;SDS011;6085;49.452;8.502;2023-07-22T19:58:38;1.85;;;1.75;;
12048;SDS011;6085;49.452;8.502;2023-07-22T20:02:43;2.22;;;2.03;;
12048;SDS011;6085;49.452;8.502;2023-07-22T20:06:45;2.17;;;1.98;;
12048;SDS011;6085;49.452;8.502;2023-07-22T20:10:47;2.20;;;2.00;;
12048;SDS011;6085;49.452;8.502;2023-07-22T20:14:49;2.00;;;1.85;;
12048;SDS011;6085;49.452;8.502;2023-07-22T20:18:53;2.28;;;2.10;;
12048;SDS011;6085;49.452;8.502;2023-07-22T20:22:55;1.70;;;1.60;;
12048;SDS011;6085;49.452;8.502;2023-07-22T20:26:57;1.60;;;1.50;;
12048;SDS011;6085;49.452;8.502;2023-07-22T20:30:59;2.20;;;1.80;;
12048;SDS011;6085;49.452;8.502;2023-07-22T20:35:03;2.15;;;1.98;;
12048;SDS011;6085;49.452;8.502;2023-07-22T20:39:09;1.80;;;1.70;;
12048;SDS011;6085;49.452;8.502;2023-07-22T20:43:11;2.13;;;1.67;;
12048;SDS011;6085;49.452;8.502;2023-07-22T20:47:13;2.55;;;2.00;;
12048;SDS011;6085;49.452;8.502;2023-07-22T20:51:16;2.83;;;2.05;;
12048;SDS011;6085;49.452;8.502;2023-07-22T20:55:19;1.55;;;1.45;;
12048;SDS011;6085;49.452;8.502;2023-07-22T20:59:21;2.40;;;2.10;;
12048;SDS011;6085;49.452;8.502;2023-07-22T21:03:23;1.92;;;1.70;;
12048;SDS011;6085;49.452;8.502;2023-07-22T21:07:27;1.70;;;1.60;;
12048;SDS011;6085;49.452;8.502;2023-07-22T21:11:29;2.88;;;1.80;;
12048;SDS011;6085;49.452;8.502;2023-07-22T21:15:31;2.15;;;1.95;;
12048;SDS011;6085;49.452;8.502;2023-07-22T21:19:34;2.10;;;1.92;;
12048;SDS011;6085;49.452;8.502;2023-07-22T21:23:37;2.67;;;2.08;;
12048;SDS011;6085;49.452;8.502;2023-07-22T21:27:40;2.03;;;1.60;;
12048;SDS011;6085;49.452;8.502;2023-07-22T21:31:43;1.90;;;1.80;;
12048;SDS011;6085;49.452;8.502;2023-07-22T21:35:47;2.20;;;2.00;;
12048;SDS011;6085;49.452;8.502;2023-07-22T21:39:50;2.03;;;1.92;;
12048;SDS011;6085;49.452;8.502;2023-07-22T21:43:52;1.95;;;1.60;;
12048;SDS011;6085;49.452;8.502;2023-07-22T21:47:54;1.58;;;1.45;;
12048;SDS011;6085;49.452;8.502;2023-07-22T21:51:56;1.73;;;1.63;;
12048;SDS011;6085;49.452;8.502;2023-07-22T21:56:00;2.08;;;1.88;;
12048;SDS011;6085;49.452;8.502;2023-07-22T22:00:03;1.83;;;1.70;;
12048;SDS011;6085;49.452;8.502;2023-07-22T22:04:12;1.90;;;1.70;;
12048;SDS011;6085;49.452;8.502;2023-07-22T22:08:14;2.78;;;1.50;;
12048;SDS011;6085;49.452;8.502;2023-07-22T22:12:17;1.42;;;1.33;;
12048;SDS011;6085;49.452;8.502;2023-07-22T22:16:19;2.63;;;2.00;;
12048;SDS011;6085;49.452;8.502;2023-07-22T22:20:21;1.88;;;1.77;;
12048;SDS011;6085;49.452;8.502;2023-07-22T22:24:23;2.00;;;1.83;;
12048;SDS011;6085;49.452;8.502;2023-07-22T22:28:27;2.33;;;2.13;;
12048;SDS011;6085;49.452;8.502;2023-07-22T22:32:29;1.90;;;1.80;;
12048;SDS011;6085;49.452;8.502;2023-07-22T22:36:31;1.77;;;1.67;;
12048;SDS011;6085;49.452;8.502;2023-07-22T22:40:33;2.22;;;1.73;;
12048;SDS011;6085;49.452;8.502;2023-07-22T22:44:40;1.63;;;1.52;;
12048;SDS011;6085;49.452;8.502;2023-07-22T22:48:42;1.70;;;1.60;;
12048;SDS011;6085;49.452;8.502;2023-07-22T22:52:44;2.05;;;1.95;;
12048;SDS011;6085;49.452;8.502;2023-07-22T22:56:46;2.25;;;2.00;;
12048;SDS011;6085;49.452;8.502;2023-07-22T23:00:49;2.28;;;2.08;;
12048;SDS011;6085;49.452;8.502;2023-07-22T23:04:51;1.98;;;1.77;;
12048;SDS011;6085;49.452;8.502;2023-07-22T23:08:53;2.17;;;1.98;;
12048;SDS011;6085;49.452;8.502;2023-07-22T23:12:55;2.15;;;1.80;;
12048;SDS011;6085;49.452;8.502;2023-07-22T23:16:58;2.75;;;1.75;;
12048;SDS011;6085;49.452;8.502;2023-07-22T23:21:00;2.55;;;1.88;;
12048;SDS011;6085;49.452;8.502;2023-07-22T23:25:02;4.05;;;2.00;;
12048;SDS011;6085;49.452;8.502;2023-07-22T23:29:05;2.10;;;1.90;;
12048;SDS011;6085;49.452;8.502;2023-07-22T23:33:09;2.10;;;2.00;;
12048;SDS011;6085;49.452;8.502;2023-07-22T23:37:11;1.83;;;1.73;;
12048;SDS011;6085;49.452;8.502;2023-07-22T23:41:13;2.30;;;2.10;;
12048;SDS011;6085;49.452;8.502;2023-07-22T23:45:15;2.33;;;2.13;;
12048;SDS011;6085;49.452;8.502;2023-07-22T23:49:18;2.67;;;2.28;;
12048;SDS011;6085;49.452;8.502;2023-07-22T23:53:20;2.65;;;2.22;;
12048;SDS011;6085;49.452;8.502;2023-07-22T23:57:22;2.63;;;2.03;;
